Time;durP1;ratioP1;P1;durP2;ratioP2;P2;SDS_P1;SDS_P2;PMS_P1;PMS_P2;Temp;Humidity;BMP_temperature;BMP_pressure;BME280_temperature;BME280_humidity;BME280_pressure;Samples;Min_cycle;Max_cycle;Signal;HPM_P1;HPM_P2
2022/02/06 00:00:20;;;;;;;;;;;;;;;18.75;49.36;101071.84;2066849;28;20461;-65
2022/02/06 00:01:20;;;;;;;;;;;;;;;18.69;49.46;101071.47;2058526;28;19922;-68
2022/02/06 00:02:28;;;;;;;;;;;;;;;18.61;49.42;101069.34;2064536;28;20009;-68
2022/02/06 00:03:30;;;;;;;;;;;;;;;18.55;49.66;101064.41;2056512;28;20421;-67
2022/02/06 00:04:31;;;;;;;;;;;;;;;18.54;49.79;101076.31;2059866;28;19921;-67
2022/02/06 00:05:32;;;;;;;;;;;;;;;18.50;49.91;101069.38;2064066;28;20025;-68
2022/02/06 00:06:34;;;;;;;;;;;;;;;18.46;49.86;101073.31;2064299;28;19998;-68
2022/02/06 00:07:34;;;;;;;;;;;;;;;18.45;50.02;101074.28;2061707;28;20463;-68
2022/02/06 00:08:37;;;;;;;;;;;;;;;18.43;49.95;101078.03;2062514;28;20311;-67
2022/02/06 00:09:38;;;;;;;;;;;;;;;18.42;49.98;101070.84;2065547;28;19936;-68
2022/02/06 00:10:39;;;;;;;;;;;;;;;18.42;50.09;101064.50;2067382;28;19983;-65
2022/02/06 00:11:39;;;;;;;;;;;;;;;18.40;50.24;101067.38;2065927;28;19971;-66
2022/02/06 00:12:40;;;;;;;;;;;;;;;18.39;50.10;101064.75;2064964;28;19924;-66
2022/02/06 00:13:40;;;;;;;;;;;;;;;18.37;50.29;101055.81;2064473;28;19916;-66
2022/02/06 00:14:40;;;;;;;;;;;;;;;18.37;50.33;101059.44;2068207;28;19920;-66
2022/02/06 00:15:41;;;;;;;;;;;;;;;18.36;50.35;101057.66;2066334;28;19917;-67
2022/02/06 00:16:41;;;;;;;;;;;;;;;18.36;50.42;101060.41;2064536;28;19917;-66
2022/02/06 00:17:41;;;;;;;;;;;;;;;18.34;50.26;101065.09;2072665;28;19966;-66
2022/02/06 00:18:44;;;;;;;;;;;;;;;18.36;50.34;101054.94;2069951;28;20018;-66
2022/02/06 00:19:44;;;;;;;;;;;;;;;18.34;50.44;101056.91;2067760;28;19968;-66
2022/02/06 00:20:52;;;;;;;;;;;;;;;18.36;50.37;101065.00;2066682;28;20364;-66
2022/02/06 00:21:52;;;;;;;;;;;;;;;18.35;50.56;101055.94;2067897;28;19921;-66
2022/02/06 00:22:56;;;;;;;;;;;;;;;18.35;50.33;101060.53;2067847;28;19917;-66
2022/02/06 00:23:58;;;;;;;;;;;;;;;18.33;50.41;101049.72;2065350;28;19932;-66
2022/02/06 00:26:12;;;;;;;;;;;;;;;18.32;50.54;101047.13;2065315;28;19917;-66
2022/02/06 00:27:26;;;;;;;;;;;;;;;18.34;50.39;101045.13;2064653;28;19956;-66
2022/02/06 00:30:25;;;;;;;;;;;;;;;18.33;50.50;101049.72;2066338;28;19916;-66
2022/02/06 00:32:00;;;;;;;;;;;;;;;18.34;50.62;101056.91;2060714;28;19917;-66
2022/02/06 00:33:12;;;;;;;;;;;;;;;18.34;50.43;101051.47;2067544;28;19920;-66
2022/02/06 00:39:22;;;;;;;;;;;;;;;18.35;50.28;101045.03;2042508;28;19910;-66
2022/02/06 00:40:33;;;;;;;;;;;;;;;18.37;50.45;101048.50;2055340;28;19910;-67
2022/02/06 00:41:35;;;;;;;;;;;;;;;18.37;50.32;101043.03;2065965;28;19920;-67
2022/02/06 00:42:35;;;;;;;;;;;;;;;18.37;50.48;101045.78;2063276;28;19917;-67
2022/02/06 00:43:36;;;;;;;;;;;;;;;18.37;50.39;101045.78;2063929;28;19929;-67
2022/02/06 00:44:36;;;;;;;;;;;;;;;18.36;50.35;101035.84;2064132;28;19917;-67
2022/02/06 00:45:37;;;;;;;;;;;;;;;18.37;50.41;101045.78;2065697;28;19997;-67
2022/02/06 00:46:38;;;;;;;;;;;;;;;18.36;50.29;101040.44;2066341;28;19917;-67
2022/02/06 00:47:40;;;;;;;;;;;;;;;18.38;50.32;101046.63;2057449;28;19925;-66
2022/02/06 00:48:44;;;;;;;;;;;;;;;18.37;50.32;101051.25;2067760;28;19909;-67
2022/02/06 00:49:46;;;;;;;;;;;;;;;18.37;50.37;101051.25;2068573;28;20012;-66
2022/02/06 00:50:49;;;;;;;;;;;;;;;18.37;50.39;101045.78;2063428;28;20010;-67
2022/02/06 00:53:08;;;;;;;;;;;;;;;18.37;50.24;101040.31;2066133;28;19917;-66
2022/02/06 00:54:09;;;;;;;;;;;;;;;18.37;50.41;101051.25;2062253;28;19917;-67
2022/02/06 00:55:09;;;;;;;;;;;;;;;18.37;50.37;101044.88;2066561;28;20433;-67
2022/02/06 00:56:10;;;;;;;;;;;;;;;18.37;50.25;101045.78;2067464;28;20386;-67
2022/02/06 00:57:10;;;;;;;;;;;;;;;18.37;50.40;101040.31;2064268;28;20001;-67
2022/02/06 00:58:10;;;;;;;;;;;;;;;18.37;50.15;101047.63;2064741;28;19944;-67
2022/02/06 00:59:10;;;;;;;;;;;;;;;18.36;50.17;101049.47;2066534;28;19917;-67
2022/02/06 01:00:11;;;;;;;;;;;;;;;18.35;50.39;101047.75;2066562;28;19960;-67
2022/02/06 01:01:11;;;;;;;;;;;;;;;18.36;50.35;101046.75;2069207;28;19924;-67
2022/02/06 01:02:12;;;;;;;;;;;;;;;18.36;50.27;101045.88;2067606;28;19917;-65
2022/02/06 01:03:12;;;;;;;;;;;;;;;18.35;50.17;101042.28;2067725;28;19959;-66
2022/02/06 01:04:13;;;;;;;;;;;;;;;18.35;50.41;101042.28;2065032;28;20790;-66
2022/02/06 01:05:13;;;;;;;;;;;;;;;18.34;50.29;101046.00;2063709;28;19917;-66
2022/02/06 01:06:14;;;;;;;;;;;;;;;18.32;50.29;101037.06;2066179;28;19924;-66
2022/02/06 01:07:14;;;;;;;;;;;;;;;18.34;50.18;101040.53;2067027;28;19921;-66
2022/02/06 01:08:14;;;;;;;;;;;;;;;18.32;50.30;101042.50;2067136;28;19913;-66
2022/02/06 01:09:17;;;;;;;;;;;;;;;18.33;50.20;101041.53;2066820;28;19920;-66
2022/02/06 01:10:17;;;;;;;;;;;;;;;18.34;50.31;101039.69;2067038;28;19979;-66
2022/02/06 01:11:17;;;;;;;;;;;;;;;18.35;50.14;101041.44;2069216;28;20130;-66
2022/02/06 01:12:22;;;;;;;;;;;;;;;18.34;50.23;101046.00;2066336;28;20425;-67
2022/02/06 01:13:32;;;;;;;;;;;;;;;18.36;50.33;101045.88;2065347;28;19980;-66
2022/02/06 01:15:44;;;;;;;;;;;;;;;18.34;50.27;101046.00;2062888;28;19944;-66
2022/02/06 01:16:59;;;;;;;;;;;;;;;18.33;50.31;101049.72;2067435;28;20372;-66
2022/02/06 01:18:06;;;;;;;;;;;;;;;18.33;50.30;101049.72;2069437;28;19991;-66
2022/02/06 01:19:15;;;;;;;;;;;;;;;18.34;50.19;101051.47;2067174;28;19932;-66
2022/02/06 01:22:34;;;;;;;;;;;;;;;18.33;50.25;101059.78;2069010;28;19947;-67
2022/02/06 01:23:53;;;;;;;;;;;;;;;18.33;50.31;101057.06;2064149;28;19921;-66
2022/02/06 01:25:08;;;;;;;;;;;;;;;18.34;50.26;101056.91;2070712;28;19932;-67
2022/02/06 01:26:18;;;;;;;;;;;;;;;18.33;50.17;101057.91;2067698;28;19914;-67
2022/02/06 01:27:23;;;;;;;;;;;;;;;18.33;50.16;101052.47;2066766;28;19917;-67
2022/02/06 01:28:34;;;;;;;;;;;;;;;18.32;50.16;101052.56;2070378;28;20023;-66
2022/02/06 01:31:46;;;;;;;;;;;;;;;18.32;50.12;101053.44;2069154;28;19917;-67
2022/02/06 01:32:22;;;;;;;;;;;;;;;18.31;50.15;101054.44;2066645;28;19909;-67
2022/02/06 01:33:34;;;;;;;;;;;;;;;18.31;50.31;101056.31;2069863;28;20889;-67
2022/02/06 01:34:42;;;;;;;;;;;;;;;18.30;50.29;101044.53;2063549;28;19917;-67
2022/02/06 01:36:01;;;;;;;;;;;;;;;18.29;50.18;101052.81;2060453;28;19921;-67
2022/02/06 01:39:46;;;;;;;;;;;;;;;18.28;50.23;101059.28;2067930;28;19913;-67
2022/02/06 01:42:26;;;;;;;;;;;;;;;18.26;50.41;101059.41;2052115;28;19913;-67
2022/02/06 01:43:53;;;;;;;;;;;;;;;18.25;50.28;101046.75;2063701;28;20749;-67
2022/02/06 01:45:11;;;;;;;;;;;;;;;18.26;50.19;101056.66;2067841;28;20430;-67
2022/02/06 02:03:54;;;;;;;;;;;;;;;18.20;50.34;101059.88;2066689;28;19925;-67
2022/02/06 02:27:26;;;;;;;;;;;;;;;18.11;50.53;101044.25;2062472;28;19960;-66
2022/02/06 02:46:43;;;;;;;;;;;;;;;18.16;50.11;101022.91;2048181;28;19922;-66
2022/02/06 02:47:47;;;;;;;;;;;;;;;18.15;50.06;101019.31;2063498;28;20202;-66
2022/02/06 02:48:48;;;;;;;;;;;;;;;18.16;50.21;101014.72;2062637;28;19957;-66
2022/02/06 02:49:58;;;;;;;;;;;;;;;18.15;50.02;101016.59;2065554;28;19917;-66
2022/02/06 02:51:04;;;;;;;;;;;;;;;18.15;50.19;101019.31;2064868;28;19928;-66
2022/02/06 02:52:11;;;;;;;;;;;;;;;18.14;50.08;101022.16;2063511;28;19920;-66
2022/02/06 02:53:18;;;;;;;;;;;;;;;18.13;49.97;101021.28;2060346;28;20785;-66
2022/02/06 02:54:24;;;;;;;;;;;;;;;18.13;50.07;101015.84;2064072;28;19979;-65
2022/02/06 02:56:46;;;;;;;;;;;;;;;18.12;50.24;101013.22;2064548;28;19943;-68
2022/02/06 02:58:04;;;;;;;;;;;;;;;18.11;50.24;101016.94;2066002;28;20426;-66
2022/02/06 03:00:22;;;;;;;;;;;;;;;18.11;50.18;101016.94;2064709;28;19913;-66
2022/02/06 03:01:30;;;;;;;;;;;;;;;18.09;49.99;101013.47;2066246;28;20399;-66
2022/02/06 03:02:30;;;;;;;;;;;;;;;18.08;50.17;101012.59;2066233;28;19917;-66
2022/02/06 03:03:34;;;;;;;;;;;;;;;18.07;50.33;101015.44;2063714;28;20573;-66
2022/02/06 03:04:34;;;;;;;;;;;;;;;18.07;50.30;101015.44;2064164;28;20591;-66
2022/02/06 03:05:35;;;;;;;;;;;;;;;18.06;50.22;101024.63;2065652;28;19928;-66
2022/02/06 03:06:36;;;;;;;;;;;;;;;18.04;50.45;101012.97;2067135;28;19936;-66
2022/02/06 03:07:37;;;;;;;;;;;;;;;18.04;50.31;101010.25;2065323;28;19987;-66
2022/02/06 03:08:39;;;;;;;;;;;;;;;18.04;50.21;101021.16;2066977;28;19988;-66
2022/02/06 03:09:42;;;;;;;;;;;;;;;18.02;50.30;101012.22;2064482;28;19924;-66
2022/02/06 03:10:43;;;;;;;;;;;;;;;18.02;50.17;101007.63;2065005;28;20557;-66
2022/02/06 03:11:44;;;;;;;;;;;;;;;18.02;50.42;101007.63;2067385;28;19948;-67
2022/02/06 03:12:49;;;;;;;;;;;;;;;17.99;50.31;101008.72;2065967;28;19917;-66
2022/02/06 03:14:41;;;;;;;;;;;;;;;17.99;50.26;101003.28;2065852;28;19996;-67
2022/02/06 03:15:23;;;;;;;;;;;;;;;17.97;50.58;100999.78;2056767;28;19921;-66
2022/02/06 03:16:32;;;;;;;;;;;;;;;17.98;50.44;101004.28;2066526;28;19921;-67
2022/02/06 03:17:45;;;;;;;;;;;;;;;17.97;50.29;100997.06;2064934;28;19928;-67
2022/02/06 03:19:09;;;;;;;;;;;;;;;17.98;50.53;100996.09;2063309;28;19975;-67
2022/02/06 03:20:09;;;;;;;;;;;;;;;17.97;50.50;100994.34;2062802;28;20010;-66
2022/02/06 03:21:16;;;;;;;;;;;;;;;17.98;50.33;100998.81;2066723;28;19921;-66
2022/02/06 03:22:20;;;;;;;;;;;;;;;17.96;50.50;100989.88;2064474;28;19925;-66
2022/02/06 03:23:21;;;;;;;;;;;;;;;17.96;50.35;100987.16;2063510;28;19913;-66
2022/02/06 03:24:26;;;;;;;;;;;;;;;17.96;50.35;100994.47;2060848;28;20071;-66
2022/02/06 03:25:27;;;;;;;;;;;;;;;17.96;50.45;100995.34;2066437;28;19925;-66
2022/02/06 03:26:27;;;;;;;;;;;;;;;17.95;50.54;100990.84;2062507;28;19927;-66
2022/02/06 03:27:27;;;;;;;;;;;;;;;17.94;50.38;100994.59;2067008;28;20706;-66
2022/02/06 03:28:28;;;;;;;;;;;;;;;17.94;50.39;100989.13;2062707;28;19920;-66
2022/02/06 03:29:28;;;;;;;;;;;;;;;17.93;50.63;100995.59;2067406;28;19921;-66
2022/02/06 03:30:30;;;;;;;;;;;;;;;17.93;50.35;101001.03;2066078;28;19921;-66
2022/02/06 03:31:30;;;;;;;;;;;;;;;17.93;50.45;100995.59;2061249;28;19921;-66
2022/02/06 03:32:30;;;;;;;;;;;;;;;17.93;50.47;101003.78;2063136;28;20181;-66
2022/02/06 03:33:31;;;;;;;;;;;;;;;17.92;50.37;101001.16;2065083;28;20020;-66
2022/02/06 03:34:31;;;;;;;;;;;;;;;17.92;50.49;101003.88;2066451;28;19936;-66
2022/02/06 03:35:31;;;;;;;;;;;;;;;17.91;50.41;101002.16;2065181;28;20581;-66
2022/02/06 03:36:32;;;;;;;;;;;;;;;17.90;50.40;100998.53;2060414;28;20404;-66
2022/02/06 03:37:33;;;;;;;;;;;;;;;17.90;50.45;100998.53;2064378;28;19913;-66
2022/02/06 03:38:33;;;;;;;;;;;;;;;17.90;50.39;100995.81;2064959;28;20406;-66
2022/02/06 03:39:36;;;;;;;;;;;;;;;17.89;50.43;100996.81;2066506;28;20004;-66
2022/02/06 03:40:42;;;;;;;;;;;;;;;17.88;50.40;100995.06;2067095;28;19922;-66
2022/02/06 03:43:11;;;;;;;;;;;;;;;17.87;50.49;100998.78;2063409;28;19918;-66
2022/02/06 03:44:22;;;;;;;;;;;;;;;17.87;50.46;100995.19;2063012;28;19976;-68
2022/02/06 03:45:24;;;;;;;;;;;;;;;17.84;50.46;100996.31;2065522;28;20020;-66
2022/02/06 03:46:35;;;;;;;;;;;;;;;17.85;50.56;100989.84;2066269;28;19999;-66
2022/02/06 03:49:05;;;;;;;;;;;;;;;17.82;50.54;100998.28;2064572;28;19921;-66
2022/02/06 03:50:06;;;;;;;;;;;;;;;17.82;50.64;100992.81;2066009;28;19921;-66
2022/02/06 03:51:10;;;;;;;;;;;;;;;17.81;50.51;100999.28;2061120;28;19925;-66
2022/02/06 03:52:10;;;;;;;;;;;;;;;17.81;50.40;100998.38;2065588;28;19925;-66
2022/02/06 03:53:12;;;;;;;;;;;;;;;17.81;50.56;100992.94;2066577;28;20658;-66
2022/02/06 03:54:12;;;;;;;;;;;;;;;17.79;50.68;100999.34;2065246;28;20032;-66
2022/02/06 03:55:19;;;;;;;;;;;;;;;17.79;50.65;101006.69;2061338;28;19968;-66
2022/02/06 03:56:21;;;;;;;;;;;;;;;17.77;50.69;101000.47;2071801;28;19959;-66
2022/02/06 03:57:21;;;;;;;;;;;;;;;17.77;50.56;100995.88;2067279;28;19921;-66
2022/02/06 03:58:21;;;;;;;;;;;;;;;17.77;50.84;101003.19;2060419;28;20259;-66
2022/02/06 03:59:21;;;;;;;;;;;;;;;17.77;50.50;100998.59;2062669;28;19974;-66
2022/02/06 04:00:26;;;;;;;;;;;;;;;17.77;50.60;101009.50;2063735;28;20533;-66
2022/02/06 04:01:26;;;;;;;;;;;;;;;17.78;50.69;101007.66;2066456;28;20395;-66
2022/02/06 04:02:27;;;;;;;;;;;;;;;17.77;50.58;101003.19;2063975;28;20296;-67
2022/02/06 04:03:27;;;;;;;;;;;;;;;17.76;50.59;101001.44;2061972;28;19921;-67
2022/02/06 04:04:27;;;;;;;;;;;;;;;17.77;50.65;101003.19;2065539;28;19960;-67
2022/02/06 04:05:27;;;;;;;;;;;;;;;17.76;50.47;101002.31;2065613;28;19925;-66
2022/02/06 04:06:29;;;;;;;;;;;;;;;17.76;50.75;101004.16;2064995;28;19927;-66
2022/02/06 04:07:29;;;;;;;;;;;;;;;17.75;50.50;101000.56;2063816;28;20035;-66
2022/02/06 04:08:33;;;;;;;;;;;;;;;17.75;50.47;101006.03;2066667;28;19921;-66
2022/02/06 04:09:43;;;;;;;;;;;;;;;17.74;50.52;101001.56;2065922;28;19921;-66
2022/02/06 04:10:47;;;;;;;;;;;;;;;17.74;50.78;101003.44;2061278;28;20587;-66
2022/02/06 04:11:51;;;;;;;;;;;;;;;17.74;50.48;101000.72;2066807;28;19925;-67
2022/02/06 04:12:52;;;;;;;;;;;;;;;17.74;50.58;101006.16;2064332;28;20003;-66
2022/02/06 04:13:57;;;;;;;;;;;;;;;17.73;50.65;101001.69;2063470;28;19917;-66
2022/02/06 04:15:01;;;;;;;;;;;;;;;17.71;50.58;101004.56;2064402;28;20086;-67
2022/02/06 04:16:04;;;;;;;;;;;;;;;17.72;50.53;101002.69;2064090;28;19939;-67
2022/02/06 04:17:18;;;;;;;;;;;;;;;17.73;50.60;101001.69;2061281;28;19920;-66
2022/02/06 04:18:26;;;;;;;;;;;;;;;17.71;50.72;100998.19;2061630;28;20417;-67
2022/02/06 04:19:27;;;;;;;;;;;;;;;17.71;50.82;101003.66;2064615;28;20607;-66
2022/02/06 04:20:27;;;;;;;;;;;;;;;17.71;50.74;101003.66;2065843;28;19913;-66
2022/02/06 04:21:27;;;;;;;;;;;;;;;17.69;50.73;101006.53;2063340;28;20938;-66
2022/02/06 04:22:28;;;;;;;;;;;;;;;17.70;50.64;101007.38;2065502;28;20434;-66
2022/02/06 04:23:30;;;;;;;;;;;;;;;17.69;50.56;101002.94;2062306;28;19978;-66
2022/02/06 04:24:30;;;;;;;;;;;;;;;17.67;50.62;101004.91;2067232;28;19933;-66
2022/02/06 04:25:30;;;;;;;;;;;;;;;17.67;50.61;101004.91;2065635;28;19953;-65
2022/02/06 04:26:31;;;;;;;;;;;;;;;17.66;50.69;101001.28;2065381;28;19925;-66
2022/02/06 04:27:32;;;;;;;;;;;;;;;17.64;50.97;101007.84;2066585;28;19925;-66
2022/02/06 04:28:32;;;;;;;;;;;;;;;17.64;50.78;101007.84;2062595;28;19921;-67
2022/02/06 04:29:33;;;;;;;;;;;;;;;17.64;50.68;101013.28;2061605;28;19974;-67
2022/02/06 04:30:33;;;;;;;;;;;;;;;17.63;50.65;101006.13;2059986;28;19917;-67
2022/02/06 04:31:34;;;;;;;;;;;;;;;17.63;50.64;101011.56;2063521;28;19999;-67
2022/02/06 04:32:35;;;;;;;;;;;;;;;17.62;50.64;101009.84;2065326;28;19931;-67
2022/02/06 04:33:35;;;;;;;;;;;;;;;17.62;50.57;101004.38;2061803;28;19969;-66
2022/02/06 04:34:36;;;;;;;;;;;;;;;17.61;50.62;101002.63;2066449;28;19921;-66
2022/02/06 04:35:38;;;;;;;;;;;;;;;17.61;50.60;101008.09;2060454;28;20016;-67
2022/02/06 04:36:47;;;;;;;;;;;;;;;17.57;50.66;101002.88;2061935;28;19948;-66
2022/02/06 04:40:26;;;;;;;;;;;;;;;17.58;50.63;101004.59;2062956;28;19921;-67
2022/02/06 04:41:46;;;;;;;;;;;;;;;17.57;50.63;100997.41;2066295;28;20352;-67
2022/02/06 04:44:35;;;;;;;;;;;;;;;17.58;50.74;100996.41;2061329;28;19921;-67
2022/02/06 05:12:02;;;;;;;;;;;;;;;17.47;50.75;100990.94;2062178;28;19925;-66
2022/02/06 05:24:53;;;;;;;;;;;;;;;17.49;50.72;100988.97;2061051;28;19929;-67
2022/02/06 05:30:53;;;;;;;;;;;;;;;17.47;50.69;101004.56;2057278;28;20315;-66
2022/02/06 05:33:56;;;;;;;;;;;;;;;17.46;50.66;100994.63;2063591;28;20303;-67
2022/02/06 05:34:57;;;;;;;;;;;;;;;17.45;50.87;100998.38;2063664;28;19921;-66
2022/02/06 05:35:57;;;;;;;;;;;;;;;17.45;50.82;100998.38;2066606;28;20391;-66
2022/02/06 05:36:58;;;;;;;;;;;;;;;17.44;50.56;101002.09;2061679;28;19917;-66
2022/02/06 05:37:58;;;;;;;;;;;;;;;17.44;50.61;100998.47;2064785;28;19936;-66
2022/02/06 05:38:58;;;;;;;;;;;;;;;17.44;50.61;100998.47;2061848;28;19921;-66
2022/02/06 05:39:59;;;;;;;;;;;;;;;17.43;50.74;100996.75;2064316;28;20589;-66
2022/02/06 05:40:59;;;;;;;;;;;;;;;17.43;50.75;100994.88;2062580;28;19917;-66
2022/02/06 05:41:59;;;;;;;;;;;;;;;17.43;50.87;100996.75;2065325;28;20261;-66
2022/02/06 05:42:59;;;;;;;;;;;;;;;17.42;50.82;101004.06;2063169;28;19928;-66
2022/02/06 05:44:02;;;;;;;;;;;;;;;17.41;50.76;101005.03;2066960;28;19979;-66
2022/02/06 05:45:02;;;;;;;;;;;;;;;17.42;50.64;101009.50;2064125;28;19917;-66
2022/02/06 05:46:03;;;;;;;;;;;;;;;17.41;50.93;101002.31;2066549;28;19913;-66
2022/02/06 05:47:04;;;;;;;;;;;;;;;17.41;50.74;101006.88;2062486;28;19906;-66
2022/02/06 05:48:04;;;;;;;;;;;;;;;17.39;50.57;101019.75;2066147;28;19913;-66
2022/02/06 05:49:09;;;;;;;;;;;;;;;17.39;50.80;101030.66;2067415;28;20024;-66
2022/02/06 05:50:09;;;;;;;;;;;;;;;17.39;50.60;101033.38;2062369;28;20604;-66
2022/02/06 05:51:10;;;;;;;;;;;;;;;17.38;50.76;101035.25;2063603;28;19921;-66
2022/02/06 05:52:10;;;;;;;;;;;;;;;17.37;50.70;101028.06;2068344;28;20315;-66
2022/02/06 05:53:11;;;;;;;;;;;;;;;17.36;50.85;101032.63;2066323;28;19967;-66
2022/02/06 05:54:11;;;;;;;;;;;;;;;17.35;50.72;101024.59;2069046;28;20378;-66
2022/02/06 05:55:12;;;;;;;;;;;;;;;17.36;50.64;101026.31;2059136;28;20012;-66
2022/02/06 05:56:16;;;;;;;;;;;;;;;17.35;50.78;101024.59;2064694;28;19935;-66
2022/02/06 05:57:16;;;;;;;;;;;;;;;17.34;50.71;101023.72;2064974;28;19924;-66
2022/02/06 05:58:17;;;;;;;;;;;;;;;17.34;50.78;101022.81;2067162;28;19917;-66
2022/02/06 05:59:17;;;;;;;;;;;;;;;17.33;50.89;101026.56;2064756;28;19924;-66
2022/02/06 06:00:17;;;;;;;;;;;;;;;17.33;51.01;101027.41;2065745;28;20007;-66
2022/02/06 06:01:18;;;;;;;;;;;;;;;17.33;51.00;101026.56;2063725;28;19919;-66
2022/02/06 06:02:18;;;;;;;;;;;;;;;17.33;50.64;101032.00;2066577;28;19979;-66
2022/02/06 06:03:18;;;;;;;;;;;;;;;17.32;50.97;101019.34;2067143;28;19925;-66
2022/02/06 06:04:18;;;;;;;;;;;;;;;17.33;50.89;101021.09;2065418;28;19909;-66
2022/02/06 06:05:19;;;;;;;;;;;;;;;17.33;51.00;101026.56;2061810;28;19922;-66
2022/02/06 06:06:19;;;;;;;;;;;;;;;17.31;50.99;101032.09;2065861;28;19909;-66
2022/02/06 06:07:20;;;;;;;;;;;;;;;17.31;50.81;101023.94;2063743;28;19928;-66
2022/02/06 06:08:20;;;;;;;;;;;;;;;17.32;50.79;101030.25;2069033;28;19917;-66
2022/02/06 06:09:21;;;;;;;;;;;;;;;17.31;50.76;101036.69;2066989;28;19975;-66
2022/02/06 06:10:21;;;;;;;;;;;;;;;17.31;50.93;101028.53;2066504;28;19909;-66
2022/02/06 06:11:21;;;;;;;;;;;;;;;17.31;50.67;101037.56;2060042;28;19996;-66
2022/02/06 06:12:22;;;;;;;;;;;;;;;17.30;50.68;101041.28;2067519;28;20008;-66
2022/02/06 06:13:22;;;;;;;;;;;;;;;17.30;51.00;101038.56;2061845;28;19925;-66
2022/02/06 06:14:28;;;;;;;;;;;;;;;17.29;50.81;101042.25;2066629;28;20038;-66
2022/02/06 06:15:30;;;;;;;;;;;;;;;17.29;50.77;101033.22;2064409;28;20673;-66
2022/02/06 06:16:33;;;;;;;;;;;;;;;17.29;50.83;101041.38;2060436;28;19921;-66
2022/02/06 06:17:37;;;;;;;;;;;;;;;17.29;50.85;101038.66;2066205;28;19975;-66
2022/02/06 06:18:37;;;;;;;;;;;;;;;17.29;50.86;101031.34;2065817;28;20130;-66
2022/02/06 06:19:42;;;;;;;;;;;;;;;17.29;50.68;101035.94;2059842;28;19987;-66
2022/02/06 06:20:45;;;;;;;;;;;;;;;17.27;50.80;101044.25;2064585;28;19924;-66
2022/02/06 06:21:47;;;;;;;;;;;;;;;17.27;50.71;101037.91;2059994;28;19925;-66
2022/02/06 06:22:51;;;;;;;;;;;;;;;17.27;50.79;101037.91;2069015;28;19956;-66
2022/02/06 06:23:54;;;;;;;;;;;;;;;17.27;50.93;101035.19;2061626;28;19973;-66
2022/02/06 06:24:57;;;;;;;;;;;;;;;17.26;50.75;101037.03;2061668;28;20370;-66
2022/02/06 06:25:57;;;;;;;;;;;;;;;17.26;51.01;101037.03;2067470;28;19924;-66
2022/02/06 06:26:57;;;;;;;;;;;;;;;17.26;51.05;101041.63;2065913;28;19948;-66
2022/02/06 06:27:58;;;;;;;;;;;;;;;17.26;51.06;101031.59;2066445;28;19921;-66
2022/02/06 06:28:58;;;;;;;;;;;;;;;17.26;51.07;101034.31;2068071;28;19921;-67
2022/02/06 06:29:58;;;;;;;;;;;;;;;17.26;50.98;101036.19;2066281;28;19921;-67
2022/02/06 06:30:59;;;;;;;;;;;;;;;17.26;50.88;101041.63;2065328;28;19928;-68
2022/02/06 06:31:59;;;;;;;;;;;;;;;17.26;50.93;101042.50;2065734;28;19913;-67
2022/02/06 06:32:59;;;;;;;;;;;;;;;17.27;50.95;101037.91;2067147;28;20321;-67
2022/02/06 06:33:59;;;;;;;;;;;;;;;17.28;50.87;101043.25;2065811;28;20382;-67
2022/02/06 06:35:03;;;;;;;;;;;;;;;17.28;50.68;101034.22;2065286;28;20400;-67
2022/02/06 06:36:04;;;;;;;;;;;;;;;17.29;51.09;101044.09;2068038;28;20351;-67
2022/02/06 06:37:05;;;;;;;;;;;;;;;17.28;50.83;101048.69;2059517;28;19913;-67
2022/02/06 06:38:05;;;;;;;;;;;;;;;17.29;50.91;101041.38;2064793;28;19913;-67
2022/02/06 06:39:06;;;;;;;;;;;;;;;17.29;50.77;101047.69;2062504;28;19928;-67
2022/02/06 06:40:07;;;;;;;;;;;;;;;17.29;50.76;101044.97;2063731;28;20546;-67
2022/02/06 06:41:07;;;;;;;;;;;;;;;17.29;50.88;101046.84;2067775;28;19943;-68
2022/02/06 06:42:07;;;;;;;;;;;;;;;17.29;50.71;101049.56;2067165;28;19920;-67
2022/02/06 06:43:08;;;;;;;;;;;;;;;17.29;50.65;101041.38;2065237;28;19928;-67
2022/02/06 06:44:08;;;;;;;;;;;;;;;17.30;50.54;101043.16;2068246;28;20753;-67
2022/02/06 06:45:09;;;;;;;;;;;;;;;17.30;50.73;101040.41;2061454;28;19929;-67
2022/02/06 06:46:11;;;;;;;;;;;;;;;17.30;50.81;101043.16;2061233;28;20016;-67
2022/02/06 06:47:11;;;;;;;;;;;;;;;17.30;50.56;101044.00;2064114;28;19918;-67
2022/02/06 06:48:11;;;;;;;;;;;;;;;17.30;50.85;101037.69;2063605;28;19991;-67
2022/02/06 06:49:12;;;;;;;;;;;;;;;17.31;50.70;101040.28;2065118;28;20496;-67
2022/02/06 06:50:12;;;;;;;;;;;;;;;17.31;50.57;101039.41;2065730;28;20383;-67
2022/02/06 06:51:14;;;;;;;;;;;;;;;17.31;50.66;101045.72;2064832;28;19925;-67
2022/02/06 06:52:14;;;;;;;;;;;;;;;17.32;50.54;101041.16;2067867;28;19925;-66
2022/02/06 06:53:15;;;;;;;;;;;;;;;17.31;50.60;101039.41;2063849;28;20007;-66
2022/02/06 06:54:20;;;;;;;;;;;;;;;17.33;50.54;101053.81;2064676;28;19918;-67
2022/02/06 06:55:21;;;;;;;;;;;;;;;17.32;50.69;101052.94;2060089;28;19921;-66
2022/02/06 06:56:32;;;;;;;;;;;;;;;17.33;50.29;101053.81;2063197;28;19921;-67
2022/02/06 06:57:39;;;;;;;;;;;;;;;17.33;50.38;101059.25;2062034;28;20003;-66
2022/02/06 06:58:46;;;;;;;;;;;;;;;17.33;50.41;101059.25;2063547;28;20490;-67
2022/02/06 07:00:19;;;;;;;;;;;;;;;17.33;50.43;101061.97;2063469;28;19960;-67
2022/02/06 07:01:20;;;;;;;;;;;;;;;17.32;50.26;101052.06;2064414;28;20402;-67
2022/02/06 07:03:24;;;;;;;;;;;;;;;17.33;50.32;101065.56;2060302;28;19935;-67
2022/02/06 07:04:24;;;;;;;;;;;;;;;17.32;50.21;101068.41;2068291;28;19925;-67
2022/02/06 07:05:25;;;;;;;;;;;;;;;17.33;50.24;101064.72;2063176;28;19928;-66
2022/02/06 07:06:25;;;;;;;;;;;;;;;17.33;50.44;101070.16;2066556;28;20380;-67
2022/02/06 07:07:25;;;;;;;;;;;;;;;17.33;50.32;101070.16;2062078;28;20773;-68
2022/02/06 07:08:26;;;;;;;;;;;;;;;17.33;50.19;101061.97;2066318;28;19921;-67
2022/02/06 07:09:26;;;;;;;;;;;;;;;17.32;50.23;101065.69;2066403;28;19959;-66
2022/02/06 07:10:27;;;;;;;;;;;;;;;17.33;50.20;101067.44;2066565;28;20212;-69
2022/02/06 07:11:27;;;;;;;;;;;;;;;17.33;50.10;101064.72;2060656;28;20024;-66
2022/02/06 07:12:27;;;;;;;;;;;;;;;17.33;50.29;101071.03;2065032;28;19924;-66
2022/02/06 07:13:27;;;;;;;;;;;;;;;17.33;50.11;101083.78;2061335;28;19922;-67
2022/02/06 07:14:28;;;;;;;;;;;;;;;17.33;50.15;101078.34;2060958;28;19921;-66
2022/02/06 07:15:28;;;;;;;;;;;;;;;17.33;50.29;101070.16;2063183;28;19925;-67
2022/02/06 07:16:28;;;;;;;;;;;;;;;17.33;50.39;101064.72;2060822;28;20766;-67
2022/02/06 07:17:29;;;;;;;;;;;;;;;17.32;50.36;101068.41;2066396;28;20160;-67
2022/02/06 07:18:29;;;;;;;;;;;;;;;17.33;50.01;101075.59;2066477;28;19913;-67
2022/02/06 07:19:29;;;;;;;;;;;;;;;17.33;50.04;101070.16;2065728;28;19921;-67
2022/02/06 07:20:32;;;;;;;;;;;;;;;17.32;50.24;101079.31;2066121;28;20288;-67
2022/02/06 07:21:38;;;;;;;;;;;;;;;17.33;50.29;101076.47;2062454;28;20207;-67
2022/02/06 07:22:39;;;;;;;;;;;;;;;17.34;50.15;101088.22;2066792;28;19919;-68
2022/02/06 07:23:39;;;;;;;;;;;;;;;17.35;50.26;101076.38;2064515;28;19921;-66
2022/02/06 07:24:40;;;;;;;;;;;;;;;17.35;50.13;101079.09;2063882;28;20793;-66
2022/02/06 07:25:44;;;;;;;;;;;;;;;17.35;50.09;101079.97;2063092;28;19916;-66
2022/02/06 07:26:47;;;;;;;;;;;;;;;17.34;49.94;101077.34;2064380;28;19921;-66
2022/02/06 07:27:49;;;;;;;;;;;;;;;17.35;50.20;101082.69;2069164;28;19921;-66
2022/02/06 07:28:56;;;;;;;;;;;;;;;17.36;50.00;101080.81;2064575;28;20388;-66
2022/02/06 07:29:57;;;;;;;;;;;;;;;17.36;50.21;101075.38;2066278;28;19964;-66
2022/02/06 07:30:58;;;;;;;;;;;;;;;17.36;50.09;101075.38;2065306;28;20470;-66
2022/02/06 07:32:00;;;;;;;;;;;;;;;17.36;50.01;101083.53;2066044;28;20545;-66
2022/02/06 07:33:00;;;;;;;;;;;;;;;17.35;49.80;101082.69;2061277;28;19917;-66
2022/02/06 07:34:01;;;;;;;;;;;;;;;17.36;50.02;101086.28;2062907;28;19948;-66
2022/02/06 07:35:02;;;;;;;;;;;;;;;17.36;50.01;101080.81;2064661;28;19917;-66
2022/02/06 07:36:02;;;;;;;;;;;;;;;17.36;49.82;101083.53;2063926;28;19991;-66